sensor_id;sensor_type;location;lat;lon;timestamp;temperature;humidity
27114;DHT22;14648;49.730;8.614;2023-02-28T00:01:10;1.10;37.40
27114;DHT22;14648;49.730;8.614;2023-02-28T00:03:39;1.00;37.40
27114;DHT22;14648;49.730;8.614;2023-02-28T00:06:06;1.00;37.50
27114;DHT22;14648;49.730;8.614;2023-02-28T00:08:33;1.00;37.60
27114;DHT22;14648;49.730;8.614;2023-02-28T00:11:03;1.00;37.70
27114;DHT22;14648;49.730;8.614;2023-02-28T00:13:30;1.00;37.80
27114;DHT22;14648;49.730;8.614;2023-02-28T00:16:11;1.00;37.80
27114;DHT22;14648;49.730;8.614;2023-02-28T00:18:38;1.00;37.90
27114;DHT22;14648;49.730;8.614;2023-02-28T00:21:05;0.90;37.90
27114;DHT22;14648;49.730;8.614;2023-02-28T00:23:31;0.90;38.00
27114;DHT22;14648;49.730;8.614;2023-02-28T00:25:57;0.80;38.00
27114;DHT22;14648;49.730;8.614;2023-02-28T00:28:23;0.80;38.10
27114;DHT22;14648;49.730;8.614;2023-02-28T00:30:49;0.80;38.20
27114;DHT22;14648;49.730;8.614;2023-02-28T00:33:15;0.90;38.30
27114;DHT22;14648;49.730;8.614;2023-02-28T00:35:41;0.80;38.30
27114;DHT22;14648;49.730;8.614;2023-02-28T00:38:07;0.90;38.50
27114;DHT22;14648;49.730;8.614;2023-02-28T00:40:32;0.80;38.40
27114;DHT22;14648;49.730;8.614;2023-02-28T00:42:58;0.80;38.50
27114;DHT22;14648;49.730;8.614;2023-02-28T00:45:24;0.80;38.60
27114;DHT22;14648;49.730;8.614;2023-02-28T00:47:50;0.80;38.60
27114;DHT22;14648;49.730;8.614;2023-02-28T00:50:20;0.80;38.60
27114;DHT22;14648;49.730;8.614;2023-02-28T00:52:46;0.70;38.70
27114;DHT22;14648;49.730;8.614;2023-02-28T00:55:12;0.70;38.70
27114;DHT22;14648;49.730;8.614;2023-02-28T00:57:38;0.70;38.80
27114;DHT22;14648;49.730;8.614;2023-02-28T01:00:05;0.70;38.80
27114;DHT22;14648;49.730;8.614;2023-02-28T01:02:31;0.70;38.90
27114;DHT22;14648;49.730;8.614;2023-02-28T01:04:57;0.70;39.00
27114;DHT22;14648;49.730;8.614;2023-02-28T01:07:23;0.70;39.10
27114;DHT22;14648;49.730;8.614;2023-02-28T01:09:49;0.60;39.10
27114;DHT22;14648;49.730;8.614;2023-02-28T01:12:15;0.60;39.20
27114;DHT22;14648;49.730;8.614;2023-02-28T01:14:41;0.60;39.20
27114;DHT22;14648;49.730;8.614;2023-02-28T01:17:07;0.60;39.30
27114;DHT22;14648;49.730;8.614;2023-02-28T01:19:32;0.60;39.30
27114;DHT22;14648;49.730;8.614;2023-02-28T01:22:01;0.60;39.30
27114;DHT22;14648;49.730;8.614;2023-02-28T01:24:28;0.60;39.30
27114;DHT22;14648;49.730;8.614;2023-02-28T01:26:54;0.50;39.40
27114;DHT22;14648;49.730;8.614;2023-02-28T01:29:19;0.60;39.30
27114;DHT22;14648;49.730;8.614;2023-02-28T01:31:45;0.50;39.40
27114;DHT22;14648;49.730;8.614;2023-02-28T01:34:11;0.50;39.40
27114;DHT22;14648;49.730;8.614;2023-02-28T01:36:36;0.50;39.40
27114;DHT22;14648;49.730;8.614;2023-02-28T01:39:02;0.50;39.50
27114;DHT22;14648;49.730;8.614;2023-02-28T01:41:31;0.40;39.50
27114;DHT22;14648;49.730;8.614;2023-02-28T01:44:01;0.40;39.50
27114;DHT22;14648;49.730;8.614;2023-02-28T01:46:33;0.40;39.50
27114;DHT22;14648;49.730;8.614;2023-02-28T01:49:11;0.40;39.50
27114;DHT22;14648;49.730;8.614;2023-02-28T01:52:05;0.40;39.60
27114;DHT22;14648;49.730;8.614;2023-02-28T01:54:34;0.40;39.70
27114;DHT22;14648;49.730;8.614;2023-02-28T01:57:10;0.40;39.70
27114;DHT22;14648;49.730;8.614;2023-02-28T01:59:57;0.30;39.90
27114;DHT22;14648;49.730;8.614;2023-02-28T02:02:26;0.30;39.90
27114;DHT22;14648;49.730;8.614;2023-02-28T02:05:09;0.30;39.90
27114;DHT22;14648;49.730;8.614;2023-02-28T02:07:39;0.30;40.10
27114;DHT22;14648;49.730;8.614;2023-02-28T02:10:41;0.30;40.10
27114;DHT22;14648;49.730;8.614;2023-02-28T02:19:16;0.30;40.20
27114;DHT22;14648;49.730;8.614;2023-02-28T02:22:19;0.30;40.30
27114;DHT22;14648;49.730;8.614;2023-02-28T02:25:16;0.30;40.20
27114;DHT22;14648;49.730;8.614;2023-02-28T02:36:22;0.20;40.20
27114;DHT22;14648;49.730;8.614;2023-02-28T02:41:37;0.20;40.30
27114;DHT22;14648;49.730;8.614;2023-02-28T02:44:35;0.20;40.30
27114;DHT22;14648;49.730;8.614;2023-02-28T02:47:12;0.20;40.50
27114;DHT22;14648;49.730;8.614;2023-02-28T02:49:43;0.20;40.40
27114;DHT22;14648;49.730;8.614;2023-02-28T02:52:25;0.20;40.50
27114;DHT22;14648;49.730;8.614;2023-02-28T02:55:04;0.20;40.50
27114;DHT22;14648;49.730;8.614;2023-02-28T02:57:40;0.20;40.50
27114;DHT22;14648;49.730;8.614;2023-02-28T03:00:20;0.20;40.60
27114;DHT22;14648;49.730;8.614;2023-02-28T03:02:51;0.10;40.60
27114;DHT22;14648;49.730;8.614;2023-02-28T03:05:23;0.20;40.60
27114;DHT22;14648;49.730;8.614;2023-02-28T03:07:51;0.10;40.70
27114;DHT22;14648;49.730;8.614;2023-02-28T03:19:17;0.10;40.90
27114;DHT22;14648;49.730;8.614;2023-02-28T03:22:16;0.00;40.80
27114;DHT22;14648;49.730;8.614;2023-02-28T03:25:25;0.00;40.80
27114;DHT22;14648;49.730;8.614;2023-02-28T03:30:50;0.00;40.90
27114;DHT22;14648;49.730;8.614;2023-02-28T03:33:28;0.00;40.90
27114;DHT22;14648;49.730;8.614;2023-02-28T03:36:12;0.00;41.00
27114;DHT22;14648;49.730;8.614;2023-02-28T03:38:51;0.00;41.00
27114;DHT22;14648;49.730;8.614;2023-02-28T03:41:27;0.00;41.10
27114;DHT22;14648;49.730;8.614;2023-02-28T03:44:09;0.00;41.20
27114;DHT22;14648;49.730;8.614;2023-02-28T03:46:44;0.00;41.20
27114;DHT22;14648;49.730;8.614;2023-02-28T03:49:22;0.00;41.30
27114;DHT22;14648;49.730;8.614;2023-02-28T03:51:51;0.00;41.40
27114;DHT22;14648;49.730;8.614;2023-02-28T03:54:22;-0.10;41.40
27114;DHT22;14648;49.730;8.614;2023-02-28T03:59:44;-0.10;41.50
27114;DHT22;14648;49.730;8.614;2023-02-28T04:02:12;-0.10;41.50
27114;DHT22;14648;49.730;8.614;2023-02-28T04:04:38;-0.10;41.50
27114;DHT22;14648;49.730;8.614;2023-02-28T04:07:07;-0.10;41.60
27114;DHT22;14648;49.730;8.614;2023-02-28T04:09:34;-0.10;41.70
27114;DHT22;14648;49.730;8.614;2023-02-28T04:12:00;-0.20;41.60
27114;DHT22;14648;49.730;8.614;2023-02-28T04:14:26;-0.10;41.70
27114;DHT22;14648;49.730;8.614;2023-02-28T04:16:52;-0.10;41.70
27114;DHT22;14648;49.730;8.614;2023-02-28T04:19:18;-0.20;41.60
27114;DHT22;14648;49.730;8.614;2023-02-28T04:21:46;-0.20;41.60
27114;DHT22;14648;49.730;8.614;2023-02-28T04:24:16;-0.20;41.60
27114;DHT22;14648;49.730;8.614;2023-02-28T04:26:48;-0.30;41.60
27114;DHT22;14648;49.730;8.614;2023-02-28T04:29:26;-0.20;41.70
27114;DHT22;14648;49.730;8.614;2023-02-28T04:31:54;-0.30;41.70
27114;DHT22;14648;49.730;8.614;2023-02-28T04:34:23;-0.30;41.80
27114;DHT22;14648;49.730;8.614;2023-02-28T04:36:49;-0.30;41.80
27114;DHT22;14648;49.730;8.614;2023-02-28T04:39:16;-0.40;41.70
27114;DHT22;14648;49.730;8.614;2023-02-28T04:41:44;-0.40;41.80
27114;DHT22;14648;49.730;8.614;2023-02-28T04:44:10;-0.40;41.80
27114;DHT22;14648;49.730;8.614;2023-02-28T04:46:36;-0.40;41.90
27114;DHT22;14648;49.730;8.614;2023-02-28T04:49:03;-0.40;42.60
27114;DHT22;14648;49.730;8.614;2023-02-28T04:51:28;-0.40;41.90
27114;DHT22;14648;49.730;8.614;2023-02-28T04:53:54;-0.40;41.90
27114;DHT22;14648;49.730;8.614;2023-02-28T04:56:20;-0.40;41.90
27114;DHT22;14648;49.730;8.614;2023-02-28T04:58:47;-0.40;42.00
27114;DHT22;14648;49.730;8.614;2023-02-28T05:01:19;-0.40;42.00
27114;DHT22;14648;49.730;8.614;2023-02-28T05:03:46;-0.40;42.10
27114;DHT22;14648;49.730;8.614;2023-02-28T05:06:12;-0.40;42.10
27114;DHT22;14648;49.730;8.614;2023-02-28T05:08:39;-0.40;42.10
27114;DHT22;14648;49.730;8.614;2023-02-28T05:11:15;-0.40;42.10
27114;DHT22;14648;49.730;8.614;2023-02-28T05:13:43;-0.40;42.60
27114;DHT22;14648;49.730;8.614;2023-02-28T05:16:09;-0.40;42.30
27114;DHT22;14648;49.730;8.614;2023-02-28T05:18:34;-0.40;42.30
27114;DHT22;14648;49.730;8.614;2023-02-28T05:21:00;-0.50;42.30
27114;DHT22;14648;49.730;8.614;2023-02-28T05:23:29;-0.50;42.40
27114;DHT22;14648;49.730;8.614;2023-02-28T05:25:55;-0.50;42.40
27114;DHT22;14648;49.730;8.614;2023-02-28T05:28:21;-0.40;42.50
27114;DHT22;14648;49.730;8.614;2023-02-28T05:30:47;-0.40;42.60
27114;DHT22;14648;49.730;8.614;2023-02-28T05:33:13;-0.40;42.70
27114;DHT22;14648;49.730;8.614;2023-02-28T05:35:40;-0.40;42.70
27114;DHT22;14648;49.730;8.614;2023-02-28T05:38:08;-0.40;42.80
27114;DHT22;14648;49.730;8.614;2023-02-28T05:40:48;-0.40;42.90
27114;DHT22;14648;49.730;8.614;2023-02-28T05:43:13;-0.40;43.00
27114;DHT22;14648;49.730;8.614;2023-02-28T05:45:39;-0.40;43.00
27114;DHT22;14648;49.730;8.614;2023-02-28T05:48:05;-0.40;43.00
27114;DHT22;14648;49.730;8.614;2023-02-28T05:50:31;-0.40;43.10
27114;DHT22;14648;49.730;8.614;2023-02-28T05:52:56;-0.40;43.10
27114;DHT22;14648;49.730;8.614;2023-02-28T05:55:22;-0.40;43.20
27114;DHT22;14648;49.730;8.614;2023-02-28T05:57:48;-0.40;43.30
27114;DHT22;14648;49.730;8.614;2023-02-28T06:00:14;-0.40;43.40
27114;DHT22;14648;49.730;8.614;2023-02-28T06:02:41;-0.40;43.40
27114;DHT22;14648;49.730;8.614;2023-02-28T06:05:14;-0.40;43.50
27114;DHT22;14648;49.730;8.614;2023-02-28T06:07:42;-0.40;43.60
27114;DHT22;14648;49.730;8.614;2023-02-28T06:10:11;-0.40;43.70
27114;DHT22;14648;49.730;8.614;2023-02-28T06:12:38;-0.40;43.70
27114;DHT22;14648;49.730;8.614;2023-02-28T06:15:04;-0.40;43.80
27114;DHT22;14648;49.730;8.614;2023-02-28T06:17:30;-0.40;43.90
27114;DHT22;14648;49.730;8.614;2023-02-28T06:19:56;-0.40;44.10
27114;DHT22;14648;49.730;8.614;2023-02-28T06:22:21;-0.40;44.10
27114;DHT22;14648;49.730;8.614;2023-02-28T06:24:47;-0.40;44.20
27114;DHT22;14648;49.730;8.614;2023-02-28T06:27:13;-0.40;44.30
27114;DHT22;14648;49.730;8.614;2023-02-28T06:29:38;-0.30;44.40
27114;DHT22;14648;49.730;8.614;2023-02-28T06:32:07;-0.40;44.30
27114;DHT22;14648;49.730;8.614;2023-02-28T06:34:33;-0.30;44.40
27114;DHT22;14648;49.730;8.614;2023-02-28T06:36:59;-0.30;44.50
27114;DHT22;14648;49.730;8.614;2023-02-28T06:39:28;-0.30;44.50
27114;DHT22;14648;49.730;8.614;2023-02-28T06:41:54;-0.30;44.60
27114;DHT22;14648;49.730;8.614;2023-02-28T06:44:20;-0.30;44.60
27114;DHT22;14648;49.730;8.614;2023-02-28T06:46:48;-0.20;44.60
27114;DHT22;14648;49.730;8.614;2023-02-28T06:49:14;-0.20;44.70
27114;DHT22;14648;49.730;8.614;2023-02-28T06:51:41;-0.20;44.70
27114;DHT22;14648;49.730;8.614;2023-02-28T06:54:11;-0.20;44.80
27114;DHT22;14648;49.730;8.614;2023-02-28T06:56:37;-0.10;44.90
27114;DHT22;14648;49.730;8.614;2023-02-28T06:59:03;-0.20;44.80
27114;DHT22;14648;49.730;8.614;2023-02-28T07:01:29;-0.10;45.00
27114;DHT22;14648;49.730;8.614;2023-02-28T07:03:57;-0.10;45.00
27114;DHT22;14648;49.730;8.614;2023-02-28T07:06:22;-0.10;45.00
27114;DHT22;14648;49.730;8.614;2023-02-28T07:08:50;-0.10;45.10
27114;DHT22;14648;49.730;8.614;2023-02-28T07:11:17;-0.10;45.20
27114;DHT22;14648;49.730;8.614;2023-02-28T07:13:43;0.00;45.20
27114;DHT22;14648;49.730;8.614;2023-02-28T07:16:10;0.00;45.10
27114;DHT22;14648;49.730;8.614;2023-02-28T07:18:37;0.00;45.20
27114;DHT22;14648;49.730;8.614;2023-02-28T07:21:05;0.10;45.40
27114;DHT22;14648;49.730;8.614;2023-02-28T07:23:33;0.10;45.40
27114;DHT22;14648;49.730;8.614;2023-02-28T07:25:59;0.20;45.40
27114;DHT22;14648;49.730;8.614;2023-02-28T07:28:25;0.30;45.50
27114;DHT22;14648;49.730;8.614;2023-02-28T07:30:50;0.40;45.50
27114;DHT22;14648;49.730;8.614;2023-02-28T07:33:16;0.40;45.50
27114;DHT22;14648;49.730;8.614;2023-02-28T07:35:42;0.50;45.60
27114;DHT22;14648;49.730;8.614;2023-02-28T07:38:09;0.60;45.60
27114;DHT22;14648;49.730;8.614;2023-02-28T07:40:39;0.70;45.70
27114;DHT22;14648;49.730;8.614;2023-02-28T07:43:05;0.80;45.60
27114;DHT22;14648;49.730;8.614;2023-02-28T07:45:31;0.80;45.60
27114;DHT22;14648;49.730;8.614;2023-02-28T07:48:00;0.90;45.70
27114;DHT22;14648;49.730;8.614;2023-02-28T07:50:26;1.00;45.60
27114;DHT22;14648;49.730;8.614;2023-02-28T07:52:57;1.20;45.80
27114;DHT22;14648;49.730;8.614;2023-02-28T07:55:23;1.30;45.80
27114;DHT22;14648;49.730;8.614;2023-02-28T07:57:49;1.40;45.80
27114;DHT22;14648;49.730;8.614;2023-02-28T08:00:15;1.50;45.80
27114;DHT22;14648;49.730;8.614;2023-02-28T08:02:41;1.70;45.90
27114;DHT22;14648;49.730;8.614;2023-02-28T08:05:07;1.80;45.90
27114;DHT22;14648;49.730;8.614;2023-02-28T08:07:33;2.10;46.00
27114;DHT22;14648;49.730;8.614;2023-02-28T08:09:59;2.30;46.00
27114;DHT22;14648;49.730;8.614;2023-02-28T08:12:25;2.50;46.00
27114;DHT22;14648;49.730;8.614;2023-02-28T08:14:51;2.70;46.00
27114;DHT22;14648;49.730;8.614;2023-02-28T08:17:16;3.10;46.10
27114;DHT22;14648;49.730;8.614;2023-02-28T08:19:45;3.40;46.00
27114;DHT22;14648;49.730;8.614;2023-02-28T08:22:11;3.70;45.70
27114;DHT22;14648;49.730;8.614;2023-02-28T08:24:37;3.90;45.20
27114;DHT22;14648;49.730;8.614;2023-02-28T08:27:03;4.00;44.80
27114;DHT22;14648;49.730;8.614;2023-02-28T08:29:29;4.10;44.60
27114;DHT22;14648;49.730;8.614;2023-02-28T08:31:55;4.20;44.50
27114;DHT22;14648;49.730;8.614;2023-02-28T08:34:21;4.40;44.30
27114;DHT22;14648;49.730;8.614;2023-02-28T08:36:48;4.60;44.10
27114;DHT22;14648;49.730;8.614;2023-02-28T08:39:14;4.70;43.90
27114;DHT22;14648;49.730;8.614;2023-02-28T08:41:39;4.90;43.80
27114;DHT22;14648;49.730;8.614;2023-02-28T08:44:05;5.10;43.70
27114;DHT22;14648;49.730;8.614;2023-02-28T08:46:30;5.20;43.40
27114;DHT22;14648;49.730;8.614;2023-02-28T08:48:57;5.30;43.00
27114;DHT22;14648;49.730;8.614;2023-02-28T08:51:27;5.40;42.90
27114;DHT22;14648;49.730;8.614;2023-02-28T08:53:55;5.50;42.70
27114;DHT22;14648;49.730;8.614;2023-02-28T08:56:22;5.60;42.10
27114;DHT22;14648;49.730;8.614;2023-02-28T08:58:49;5.60;42.00
27114;DHT22;14648;49.730;8.614;2023-02-28T09:01:20;5.70;41.90
27114;DHT22;14648;49.730;8.614;2023-02-28T09:03:50;5.90;41.80
27114;DHT22;14648;49.730;8.614;2023-02-28T09:06:17;6.00;40.70
27114;DHT22;14648;49.730;8.614;2023-02-28T09:08:44;6.10;40.60
27114;DHT22;14648;49.730;8.614;2023-02-28T09:11:12;6.20;40.50
27114;DHT22;14648;49.730;8.614;2023-02-28T09:13:39;6.40;40.40
27114;DHT22;14648;49.730;8.614;2023-02-28T09:16:07;6.50;40.00
27114;DHT22;14648;49.730;8.614;2023-02-28T09:18:35;6.60;39.70
27114;DHT22;14648;49.730;8.614;2023-02-28T09:21:09;6.70;39.80
27114;DHT22;14648;49.730;8.614;2023-02-28T09:23:38;6.90;39.60
27114;DHT22;14648;49.730;8.614;2023-02-28T09:26:05;7.10;39.40
27114;DHT22;14648;49.730;8.614;2023-02-28T09:28:31;7.20;39.30
27114;DHT22;14648;49.730;8.614;2023-02-28T09:31:00;7.40;38.90
27114;DHT22;14648;49.730;8.614;2023-02-28T09:33:25;7.40;38.60
27114;DHT22;14648;49.730;8.614;2023-02-28T09:35:58;7.60;38.50
27114;DHT22;14648;49.730;8.614;2023-02-28T09:38:27;7.70;38.40
27114;DHT22;14648;49.730;8.614;2023-02-28T09:40:59;7.90;38.50
27114;DHT22;14648;49.730;8.614;2023-02-28T09:43:29;8.00;37.40
27114;DHT22;14648;49.730;8.614;2023-02-28T09:48:54;7.90;37.10
27114;DHT22;14648;49.730;8.614;2023-02-28T09:54:26;7.90;37.20
27114;DHT22;14648;49.730;8.614;2023-02-28T10:00:19;7.90;36.90
27114;DHT22;14648;49.730;8.614;2023-02-28T10:06:09;8.30;36.90
27114;DHT22;14648;49.730;8.614;2023-02-28T10:11:28;8.80;36.50
27114;DHT22;14648;49.730;8.614;2023-02-28T10:16:56;9.00;36.10
27114;DHT22;14648;49.730;8.614;2023-02-28T10:19:40;9.00;34.90
27114;DHT22;14648;49.730;8.614;2023-02-28T10:22:41;9.00;35.30
27114;DHT22;14648;49.730;8.614;2023-02-28T10:25:24;9.30;35.90
27114;DHT22;14648;49.730;8.614;2023-02-28T10:28:00;9.70;35.50
27114;DHT22;14648;49.730;8.614;2023-02-28T10:30:45;10.00;34.50
27114;DHT22;14648;49.730;8.614;2023-02-28T10:33:24;10.20;34.60
27114;DHT22;14648;49.730;8.614;2023-02-28T10:35:54;10.40;34.70
27114;DHT22;14648;49.730;8.614;2023-02-28T10:38:24;10.50;34.50
27114;DHT22;14648;49.730;8.614;2023-02-28T10:40:51;10.60;33.80
27114;DHT22;14648;49.730;8.614;2023-02-28T10:43:29;10.80;33.90
27114;DHT22;14648;49.730;8.614;2023-02-28T10:48:34;11.00;33.50
27114;DHT22;14648;49.730;8.614;2023-02-28T10:51:07;11.00;32.60
27114;DHT22;14648;49.730;8.614;2023-02-28T10:53:50;10.90;32.40
27114;DHT22;14648;49.730;8.614;2023-02-28T10:56:23;10.80;32.20
27114;DHT22;14648;49.730;8.614;2023-02-28T10:58:54;10.60;31.80
27114;DHT22;14648;49.730;8.614;2023-02-28T11:03:56;10.80;32.10
27114;DHT22;14648;49.730;8.614;2023-02-28T11:06:30;11.00;31.70
27114;DHT22;14648;49.730;8.614;2023-02-28T11:11:56;11.40;31.30
27114;DHT22;14648;49.730;8.614;2023-02-28T11:14:28;11.60;31.10
27114;DHT22;14648;49.730;8.614;2023-02-28T11:17:00;11.60;30.90
27114;DHT22;14648;49.730;8.614;2023-02-28T11:19:44;11.70;30.90
27114;DHT22;14648;49.730;8.614;2023-02-28T11:22:11;11.70;30.80
27114;DHT22;14648;49.730;8.614;2023-02-28T11:24:47;11.70;30.80
27114;DHT22;14648;49.730;8.614;2023-02-28T11:29:58;11.20;29.90
27114;DHT22;14648;49.730;8.614;2023-02-28T11:32:28;10.80;30.20
27114;DHT22;14648;49.730;8.614;2023-02-28T11:37:38;10.20;29.80
27114;DHT22;14648;49.730;8.614;2023-02-28T11:40:12;10.00;29.90
27114;DHT22;14648;49.730;8.614;2023-02-28T11:42:49;9.80;29.30
27114;DHT22;14648;49.730;8.614;2023-02-28T11:45:44;9.60;29.30
27114;DHT22;14648;49.730;8.614;2023-02-28T11:48:30;9.50;29.60
27114;DHT22;14648;49.730;8.614;2023-02-28T11:56:47;10.30;29.80
27114;DHT22;14648;49.730;8.614;2023-02-28T11:59:35;10.70;29.50
27114;DHT22;14648;49.730;8.614;2023-02-28T12:02:23;10.80;29.00
27114;DHT22;14648;49.730;8.614;2023-02-28T12:05:04;10.80;28.90
27114;DHT22;14648;49.730;8.614;2023-02-28T12:07:38;10.90;29.30
27114;DHT22;14648;49.730;8.614;2023-02-28T12:10:23;11.10;29.50
27114;DHT22;14648;49.730;8.614;2023-02-28T12:13:29;11.30;29.40
27114;DHT22;14648;49.730;8.614;2023-02-28T12:16:54;11.50;29.10
27114;DHT22;14648;49.730;8.614;2023-02-28T12:25:21;11.20;27.90
27114;DHT22;14648;49.730;8.614;2023-02-28T12:27:51;11.20;28.30
27114;DHT22;14648;49.730;8.614;2023-02-28T12:30:27;11.40;28.40
27114;DHT22;14648;49.730;8.614;2023-02-28T12:33:07;11.50;28.60
27114;DHT22;14648;49.730;8.614;2023-02-28T12:38:23;11.50;28.30
27114;DHT22;14648;49.730;8.614;2023-02-28T12:41:00;11.50;28.00
27114;DHT22;14648;49.730;8.614;2023-02-28T12:43:42;11.50;28.40
27114;DHT22;14648;49.730;8.614;2023-02-28T12:46:19;11.60;28.40
27114;DHT22;14648;49.730;8.614;2023-02-28T12:48:53;11.80;28.40
27114;DHT22;14648;49.730;8.614;2023-02-28T12:51:24;11.90;28.40
27114;DHT22;14648;49.730;8.614;2023-02-28T12:54:11;12.00;28.90
27114;DHT22;14648;49.730;8.614;2023-02-28T12:59:52;12.10;27.70
27114;DHT22;14648;49.730;8.614;2023-02-28T13:02:55;11.90;27.80
27114;DHT22;14648;49.730;8.614;2023-02-28T13:09:14;11.40;27.30
27114;DHT22;14648;49.730;8.614;2023-02-28T13:11:46;11.50;27.80
27114;DHT22;14648;49.730;8.614;2023-02-28T13:19:42;11.50;27.20
27114;DHT22;14648;49.730;8.614;2023-02-28T13:22:41;11.60;27.30
27114;DHT22;14648;49.730;8.614;2023-02-28T13:31:23;11.60;26.90
27114;DHT22;14648;49.730;8.614;2023-02-28T13:36:31;11.30;26.60
27114;DHT22;14648;49.730;8.614;2023-02-28T13:39:02;11.20;27.50
27114;DHT22;14648;49.730;8.614;2023-02-28T13:41:49;11.20;27.00
27114;DHT22;14648;49.730;8.614;2023-02-28T13:44:18;10.90;27.20
27114;DHT22;14648;49.730;8.614;2023-02-28T14:00:51;11.30;27.40
27114;DHT22;14648;49.730;8.614;2023-02-28T14:04:06;11.50;27.20
27114;DHT22;14648;49.730;8.614;2023-02-28T14:06:59;11.60;27.30
27114;DHT22;14648;49.730;8.614;2023-02-28T14:09:31;11.80;27.40
27114;DHT22;14648;49.730;8.614;2023-02-28T14:20:43;12.30;27.00
27114;DHT22;14648;49.730;8.614;2023-02-28T14:23:35;12.40;27.00
27114;DHT22;14648;49.730;8.614;2023-02-28T14:29:00;12.20;26.70
27114;DHT22;14648;49.730;8.614;2023-02-28T14:32:01;11.80;26.90
27114;DHT22;14648;49.730;8.614;2023-02-28T14:34:39;11.70;27.30
27114;DHT22;14648;49.730;8.614;2023-02-28T14:37:32;11.70;27.30
27114;DHT22;14648;49.730;8.614;2023-02-28T14:40:00;11.70;27.00
27114;DHT22;14648;49.730;8.614;2023-02-28T14:42:37;11.70;26.90
27114;DHT22;14648;49.730;8.614;2023-02-28T14:45:21;11.70;26.60
27114;DHT22;14648;49.730;8.614;2023-02-28T14:47:49;11.60;26.20
27114;DHT22;14648;49.730;8.614;2023-02-28T14:50:36;11.40;26.30
27114;DHT22;14648;49.730;8.614;2023-02-28T14:53:02;11.30;26.30
27114;DHT22;14648;49.730;8.614;2023-02-28T14:55:31;11.10;26.40
27114;DHT22;14648;49.730;8.614;2023-02-28T14:58:01;11.10;26.40
27114;DHT22;14648;49.730;8.614;2023-02-28T15:00:52;11.10;26.40
27114;DHT22;14648;49.730;8.614;2023-02-28T15:03:24;11.10;26.60
27114;DHT22;14648;49.730;8.614;2023-02-28T15:06:12;11.10;26.70
27114;DHT22;14648;49.730;8.614;2023-02-28T15:08:46;11.00;26.40
27114;DHT22;14648;49.730;8.614;2023-02-28T15:11:22;11.00;26.60
27114;DHT22;14648;49.730;8.614;2023-02-28T15:13:51;11.00;26.30
27114;DHT22;14648;49.730;8.614;2023-02-28T15:16:41;11.00;26.20
27114;DHT22;14648;49.730;8.614;2023-02-28T15:19:24;10.90;26.30
27114;DHT22;14648;49.730;8.614;2023-02-28T15:21:57;10.80;26.00
27114;DHT22;14648;49.730;8.614;2023-02-28T15:27:07;10.70;26.20
27114;DHT22;14648;49.730;8.614;2023-02-28T15:29:45;10.70;26.40
27114;DHT22;14648;49.730;8.614;2023-02-28T15:37:55;10.50;26.40
27114;DHT22;14648;49.730;8.614;2023-02-28T15:40:49;10.40;26.30
27114;DHT22;14648;49.730;8.614;2023-02-28T15:43:30;10.30;26.30
27114;DHT22;14648;49.730;8.614;2023-02-28T15:48:36;10.20;26.60
27114;DHT22;14648;49.730;8.614;2023-02-28T15:51:36;10.20;26.50
27114;DHT22;14648;49.730;8.614;2023-02-28T15:54:06;10.10;26.60
27114;DHT22;14648;49.730;8.614;2023-02-28T15:56:38;10.00;26.70
27114;DHT22;14648;49.730;8.614;2023-02-28T15:59:19;9.90;26.70
27114;DHT22;14648;49.730;8.614;2023-02-28T16:01:45;9.70;26.70
27114;DHT22;14648;49.730;8.614;2023-02-28T16:04:19;9.80;26.80
27114;DHT22;14648;49.730;8.614;2023-02-28T16:07:05;9.90;26.90
27114;DHT22;14648;49.730;8.614;2023-02-28T16:09:37;9.90;26.80
27114;DHT22;14648;49.730;8.614;2023-02-28T16:12:03;9.80;26.60
27114;DHT22;14648;49.730;8.614;2023-02-28T16:14:31;9.80;26.70
27114;DHT22;14648;49.730;8.614;2023-02-28T16:17:03;9.80;26.80
27114;DHT22;14648;49.730;8.614;2023-02-28T16:19:31;9.80;26.80
27114;DHT22;14648;49.730;8.614;2023-02-28T16:21:58;9.80;26.90
27114;DHT22;14648;49.730;8.614;2023-02-28T16:24:23;9.80;26.90
27114;DHT22;14648;49.730;8.614;2023-02-28T16:26:52;9.70;26.90
27114;DHT22;14648;49.730;8.614;2023-02-28T16:29:25;9.60;26.90
27114;DHT22;14648;49.730;8.614;2023-02-28T16:31:55;9.50;27.00
27114;DHT22;14648;49.730;8.614;2023-02-28T16:34:21;9.30;27.00
27114;DHT22;14648;49.730;8.614;2023-02-28T16:36:48;9.20;27.00
27114;DHT22;14648;49.730;8.614;2023-02-28T16:39:14;9.10;27.20
27114;DHT22;14648;49.730;8.614;2023-02-28T16:41:44;8.90;27.30
27114;DHT22;14648;49.730;8.614;2023-02-28T16:46:53;8.70;27.50
27114;DHT22;14648;49.730;8.614;2023-02-28T16:49:18;8.60;27.40
27114;DHT22;14648;49.730;8.614;2023-02-28T16:51:44;8.50;27.50
27114;DHT22;14648;49.730;8.614;2023-02-28T16:54:10;8.40;27.40
27114;DHT22;14648;49.730;8.614;2023-02-28T16:56:36;8.30;27.50
27114;DHT22;14648;49.730;8.614;2023-02-28T16:59:03;8.20;27.50
27114;DHT22;14648;49.730;8.614;2023-02-28T17:01:29;8.10;27.60
27114;DHT22;14648;49.730;8.614;2023-02-28T17:03:56;8.00;27.60
27114;DHT22;14648;49.730;8.614;2023-02-28T17:06:29;7.90;27.70
27114;DHT22;14648;49.730;8.614;2023-02-28T17:08:56;7.80;27.80
27114;DHT22;14648;49.730;8.614;2023-02-28T17:11:23;7.70;27.80
27114;DHT22;14648;49.730;8.614;2023-02-28T17:13:50;7.60;27.80
27114;DHT22;14648;49.730;8.614;2023-02-28T17:16:29;7.50;28.00
27114;DHT22;14648;49.730;8.614;2023-02-28T17:19:02;7.30;28.10
27114;DHT22;14648;49.730;8.614;2023-02-28T17:21:31;7.20;28.10
27114;DHT22;14648;49.730;8.614;2023-02-28T17:23:57;7.10;28.20
27114;DHT22;14648;49.730;8.614;2023-02-28T17:26:23;7.00;28.30
27114;DHT22;14648;49.730;8.614;2023-02-28T17:28:54;6.90;28.50
27114;DHT22;14648;49.730;8.614;2023-02-28T17:31:22;6.70;28.60
27114;DHT22;14648;49.730;8.614;2023-02-28T17:33:48;6.60;28.70
27114;DHT22;14648;49.730;8.614;2023-02-28T17:36:15;6.40;29.00
27114;DHT22;14648;49.730;8.614;2023-02-28T17:38:43;6.20;29.20
27114;DHT22;14648;49.730;8.614;2023-02-28T17:41:12;6.00;29.30
27114;DHT22;14648;49.730;8.614;2023-02-28T17:43:38;5.90;29.70
27114;DHT22;14648;49.730;8.614;2023-02-28T17:46:04;5.70;29.80
27114;DHT22;14648;49.730;8.614;2023-02-28T17:48:32;5.60;30.00
27114;DHT22;14648;49.730;8.614;2023-02-28T17:50:58;5.50;30.10
27114;DHT22;14648;49.730;8.614;2023-02-28T17:53:24;5.40;30.30
27114;DHT22;14648;49.730;8.614;2023-02-28T17:55:50;5.20;30.30
27114;DHT22;14648;49.730;8.614;2023-02-28T17:58:16;5.10;30.50
27114;DHT22;14648;49.730;8.614;2023-02-28T18:00:44;5.10;30.60
27114;DHT22;14648;49.730;8.614;2023-02-28T18:03:11;5.00;30.60
27114;DHT22;14648;49.730;8.614;2023-02-28T18:05:38;4.90;30.70
27114;DHT22;14648;49.730;8.614;2023-02-28T18:08:04;4.90;30.80
27114;DHT22;14648;49.730;8.614;2023-02-28T18:10:30;4.80;30.90
27114;DHT22;14648;49.730;8.614;2023-02-28T18:12:58;4.70;31.00
27114;DHT22;14648;49.730;8.614;2023-02-28T18:15:24;4.60;31.00
27114;DHT22;14648;49.730;8.614;2023-02-28T18:17:50;4.60;31.10
27114;DHT22;14648;49.730;8.614;2023-02-28T18:20:16;4.50;31.20
27114;DHT22;14648;49.730;8.614;2023-02-28T18:22:43;4.40;31.30
27114;DHT22;14648;49.730;8.614;2023-02-28T18:25:10;4.30;31.40